createdAt,value
2018-01-01T00:01:23.123Z,99.90
2018-01-01T00:03:57.124Z,99.90
2018-01-01T00:06:31.051Z,99.90
2018-01-01T00:09:05.045Z,99.90
2018-01-01T00:11:39.869Z,99.90
2018-01-01T00:14:14.659Z,99.90
2018-01-01T00:16:48.319Z,99.90
2018-01-01T00:19:22.758Z,99.90
2018-01-01T00:21:56.625Z,99.90
2018-01-01T00:24:30.458Z,99.90
2018-01-01T00:27:04.971Z,99.90
2018-01-01T00:29:38.808Z,99.90
2018-01-01T00:32:13.482Z,99.90
2018-01-01T00:34:48.997Z,99.90
2018-01-01T00:37:23.407Z,99.90
2018-01-01T00:39:59.936Z,99.90
2018-01-01T00:42:36.716Z,99.90
2018-01-01T00:45:10.949Z,99.90
2018-01-01T00:47:45.351Z,99.90
2018-01-01T00:50:19.291Z,99.90
2018-01-01T00:52:53.351Z,99.90
2018-01-01T00:55:27.965Z,99.90
2018-01-01T00:58:02.027Z,99.90
2018-01-01T01:00:36.013Z,99.90
2018-01-01T01:03:09.705Z,99.90
2018-01-01T01:05:44.392Z,99.90
2018-01-01T01:08:20.460Z,99.90
2018-01-01T01:10:56.074Z,99.90
2018-01-01T01:13:29.984Z,99.90
2018-01-01T01:16:03.851Z,99.90
2018-01-01T01:18:38.692Z,99.90
2018-01-01T01:21:14.380Z,99.90
2018-01-01T01:23:49.423Z,99.90
2018-01-01T01:26:23.293Z,99.90
2018-01-01T01:28:57.762Z,99.90
2018-01-01T01:31:31.596Z,99.90
2018-01-01T01:34:05.842Z,99.90
2018-01-01T01:36:39.883Z,99.90
2018-01-01T01:39:13.797Z,99.90
2018-01-01T01:41:47.700Z,99.90
2018-01-01T01:44:24.821Z,99.90
2018-01-01T01:46:58.831Z,99.90
2018-01-01T01:49:32.877Z,99.90
2018-01-01T01:52:06.821Z,99.90
2018-01-01T01:54:40.652Z,99.90
2018-01-01T01:57:16.676Z,99.90
2018-01-01T01:59:51.614Z,99.90
2018-01-01T02:02:25.454Z,99.90
2018-01-01T02:05:00.123Z,99.90
2018-01-01T02:07:33.771Z,99.90
2018-01-01T02:10:07.522Z,99.90
2018-01-01T02:12:41.455Z,99.90
2018-01-01T02:15:15.151Z,99.90
2018-01-01T02:17:49.708Z,99.90
2018-01-01T02:20:23.602Z,99.90
2018-01-01T02:22:57.541Z,99.90
2018-01-01T02:25:31.254Z,99.90
2018-01-01T02:28:06.125Z,99.90
2018-01-01T02:30:40.797Z,99.90
2018-01-01T02:33:15.616Z,99.90
2018-01-01T02:35:49.437Z,99.90
2018-01-01T02:38:23.936Z,99.90
2018-01-01T02:40:57.952Z,99.90
2018-01-01T02:43:31.741Z,99.90
2018-01-01T02:46:05.518Z,99.90
2018-01-01T02:48:39.468Z,99.90
2018-01-01T02:51:13.386Z,99.90
2018-01-01T02:53:47.133Z,99.90
2018-01-01T02:56:21.958Z,99.90
2018-01-01T02:58:55.821Z,99.90
2018-01-01T03:01:30.179Z,99.90
2018-01-01T03:04:04.138Z,99.90
2018-01-01T03:06:37.857Z,99.90
2018-01-01T03:09:11.716Z,99.90
2018-01-01T03:11:46.320Z,99.90
2018-01-01T03:14:20.690Z,99.90
2018-01-01T03:16:54.643Z,99.90
2018-01-01T03:19:29.313Z,99.90
2018-01-01T03:22:03.331Z,99.90
2018-01-01T03:24:37.090Z,99.90
2018-01-01T03:27:11.584Z,99.10
2018-01-01T03:29:45.422Z,99.10
2018-01-01T03:32:20.040Z,99.10
2018-01-01T03:34:53.986Z,99.00
2018-01-01T03:37:28.531Z,98.60
2018-01-01T03:40:02.268Z,98.50
2018-01-01T03:42:36.012Z,98.50
2018-01-01T03:45:09.760Z,98.70
2018-01-01T03:47:43.741Z,98.20
2018-01-01T03:50:19.094Z,98.60
2018-01-01T03:52:53.995Z,99.10
2018-01-01T03:55:27.875Z,98.80
2018-01-01T03:58:02.622Z,98.90
2018-01-01T04:00:36.470Z,98.80
2018-01-01T04:03:11.019Z,98.90
2018-01-01T04:05:45.129Z,98.80
2018-01-01T04:08:19.155Z,99.30
2018-01-01T04:10:53.622Z,99.30
2018-01-01T04:13:27.522Z,99.20
2018-01-01T04:16:01.299Z,99.30
2018-01-01T04:18:36.304Z,98.00
2018-01-01T04:21:10.177Z,97.70
2018-01-01T04:23:45.587Z,98.10
2018-01-01T04:26:20.118Z,98.30
2018-01-01T04:28:54.662Z,98.30
2018-01-01T04:31:28.537Z,98.50
2018-01-01T04:34:04.130Z,99.00
2018-01-01T04:36:38.695Z,99.40
2018-01-01T04:39:12.765Z,99.30
2018-01-01T04:41:46.582Z,99.60
2018-01-01T04:44:23.724Z,99.90
2018-01-01T04:46:57.590Z,99.90
2018-01-01T04:49:32.023Z,99.90
2018-01-01T04:52:06.523Z,99.90
2018-01-01T04:54:40.617Z,99.90
2018-01-01T04:57:14.583Z,99.90
2018-01-01T04:59:48.221Z,99.90
2018-01-01T05:02:21.999Z,99.90
2018-01-01T05:04:55.951Z,99.90
2018-01-01T05:07:29.744Z,99.90
2018-01-01T05:10:03.377Z,99.90
2018-01-01T05:12:38.017Z,99.90
2018-01-01T05:15:11.978Z,99.90
2018-01-01T05:17:45.925Z,99.90
2018-01-01T05:20:19.924Z,99.90
2018-01-01T05:22:53.942Z,99.90
2018-01-01T05:25:28.384Z,99.90
2018-01-01T05:28:02.330Z,99.90
2018-01-01T05:30:36.578Z,99.90
2018-01-01T05:33:11.763Z,99.90
2018-01-01T05:35:45.714Z,99.90
2018-01-01T05:38:19.489Z,99.90
2018-01-01T05:40:54.195Z,99.90
2018-01-01T05:43:28.725Z,99.90
2018-01-01T05:46:02.628Z,99.90
2018-01-01T05:48:37.357Z,99.90
2018-01-01T05:51:11.304Z,99.90
2018-01-01T05:53:46.590Z,99.90
2018-01-01T05:56:21.028Z,99.90
2018-01-01T05:58:55.992Z,99.90
2018-01-01T06:01:29.927Z,99.90
2018-01-01T06:04:05.518Z,99.90
2018-01-01T06:06:39.450Z,99.90
2018-01-01T06:09:14.226Z,99.90
2018-01-01T06:11:48.008Z,99.90
2018-01-01T06:14:22.231Z,99.90
2018-01-01T06:16:56.542Z,99.90
2018-01-01T06:19:31.222Z,99.90
2018-01-01T06:22:04.938Z,99.90
2018-01-01T06:24:38.743Z,99.90
2018-01-01T06:27:12.782Z,99.90
2018-01-01T06:29:46.754Z,99.90
2018-01-01T06:32:20.559Z,99.90
2018-01-01T06:34:55.339Z,99.90
2018-01-01T06:37:29.361Z,99.90
2018-01-01T06:40:03.176Z,99.90
2018-01-01T06:42:36.967Z,99.90
2018-01-01T06:45:10.847Z,99.90
2018-01-01T06:47:44.697Z,99.90
2018-01-01T06:50:18.515Z,99.90
2018-01-01T06:52:52.370Z,99.90
2018-01-01T06:55:26.141Z,99.90
2018-01-01T06:58:00.022Z,99.90
2018-01-01T07:00:34.611Z,97.90
2018-01-01T07:03:09.128Z,96.00
2018-01-01T07:05:42.815Z,95.90
2018-01-01T07:08:16.777Z,96.20
2018-01-01T07:10:51.511Z,96.40
2018-01-01T07:13:25.328Z,95.50
2018-01-01T07:16:00.058Z,95.70
2018-01-01T07:18:33.891Z,95.60
2018-01-01T07:21:08.428Z,95.70
2018-01-01T07:23:42.281Z,95.60
2018-01-01T07:26:16.184Z,95.70
2018-01-01T07:28:50.888Z,95.90
2018-01-01T07:31:25.576Z,95.50
2018-01-01T07:33:59.467Z,95.80
2018-01-01T07:36:33.438Z,95.70
2018-01-01T07:39:07.311Z,94.90
2018-01-01T07:41:40.965Z,94.80
2018-01-01T07:44:15.423Z,94.00
2018-01-01T07:46:49.029Z,94.40
2018-01-01T07:49:23.634Z,90.50
2018-01-01T07:51:58.171Z,90.30
2018-01-01T07:54:32.198Z,90.30
2018-01-01T07:57:06.307Z,90.20
2018-01-01T07:59:40.145Z,90.00
2018-01-01T08:02:14.868Z,90.10
2018-01-01T08:04:48.678Z,85.80
2018-01-01T08:07:23.262Z,83.70
2018-01-01T08:09:59.382Z,77.40
2018-01-01T08:12:33.169Z,78.60
2018-01-01T08:15:08.003Z,78.90
2018-01-01T08:17:41.756Z,79.40
2018-01-01T08:20:16.364Z,76.00
2018-01-01T08:22:50.247Z,75.60
2018-01-01T08:25:24.842Z,72.10
2018-01-01T08:27:58.694Z,71.90
2018-01-01T08:30:32.458Z,69.90
2018-01-01T08:33:06.224Z,69.10
2018-01-01T08:35:40.284Z,70.70
2018-01-01T08:38:14.787Z,68.30
2018-01-01T08:40:50.035Z,65.60
2018-01-01T08:43:23.931Z,65.50
2018-01-01T08:45:58.088Z,67.60
2018-01-01T08:48:32.003Z,67.50
2018-01-01T08:51:07.467Z,68.30
2018-01-01T08:53:41.385Z,68.10
2018-01-01T08:56:15.337Z,67.60
2018-01-01T08:58:49.478Z,70.00
2018-01-01T09:01:23.458Z,69.70
2018-01-01T09:03:57.456Z,70.50
2018-01-01T09:06:31.894Z,67.60
2018-01-01T09:09:07.428Z,68.60
2018-01-01T09:11:41.310Z,70.10
2018-01-01T09:14:15.859Z,70.10
2018-01-01T09:16:49.650Z,70.00
2018-01-01T09:19:27.113Z,69.70
2018-01-01T09:22:01.031Z,69.70
2018-01-01T09:24:34.769Z,68.20
2018-01-01T09:27:09.521Z,66.70
2018-01-01T09:29:44.922Z,66.70
2018-01-01T09:32:19.418Z,69.60
2018-01-01T09:34:53.316Z,69.40
2018-01-01T09:37:27.750Z,67.90
2018-01-01T09:40:01.681Z,66.80
2018-01-01T09:42:35.743Z,67.30
2018-01-01T09:45:10.316Z,69.80
2018-01-01T09:47:44.138Z,69.70
2018-01-01T09:50:18.101Z,66.80
2018-01-01T09:52:52.888Z,69.50
2018-01-01T09:55:26.803Z,68.90
2018-01-01T09:58:00.420Z,68.00
2018-01-01T10:00:34.631Z,68.70
2018-01-01T10:03:08.447Z,68.00
2018-01-01T10:05:42.186Z,69.40
2018-01-01T10:08:15.961Z,70.40
2018-01-01T10:10:49.715Z,69.30
2018-01-01T10:13:23.585Z,70.30
2018-01-01T10:15:57.347Z,71.40
2018-01-01T10:18:31.468Z,71.50
2018-01-01T10:21:05.176Z,71.30
2018-01-01T10:23:39.048Z,71.00
2018-01-01T10:26:13.640Z,73.10
2018-01-01T10:28:48.773Z,73.00
2018-01-01T10:31:23.344Z,73.30
2018-01-01T10:33:58.966Z,75.10
2018-01-01T10:36:33.940Z,74.20
2018-01-01T10:39:07.762Z,73.70
2018-01-01T10:41:42.553Z,74.90
2018-01-01T10:44:16.427Z,74.50
2018-01-01T10:46:50.240Z,76.30
2018-01-01T10:49:24.883Z,76.80
2018-01-01T10:51:59.604Z,78.10
2018-01-01T10:54:34.381Z,78.60
2018-01-01T10:57:08.368Z,78.90
2018-01-01T10:59:42.314Z,78.80
2018-01-01T11:02:16.268Z,80.80
2018-01-01T11:04:50.242Z,80.30
2018-01-01T11:07:25.500Z,81.90
2018-01-01T11:09:59.587Z,81.90
2018-01-01T11:12:33.464Z,81.70
2018-01-01T11:15:07.426Z,83.70
2018-01-01T11:17:41.116Z,84.40
2018-01-01T11:20:15.584Z,87.50
2018-01-01T11:22:49.630Z,87.40
2018-01-01T11:25:23.437Z,87.70
2018-01-01T11:27:57.316Z,87.10
2018-01-01T11:30:31.037Z,86.90
2018-01-01T11:33:05.932Z,87.60
2018-01-01T11:35:39.841Z,87.50
2018-01-01T11:38:14.834Z,84.80
2018-01-01T11:40:50.416Z,84.60
2018-01-01T11:43:24.671Z,85.30
2018-01-01T11:45:58.412Z,82.90
2018-01-01T11:48:32.486Z,83.80
2018-01-01T11:51:06.285Z,79.90
2018-01-01T11:53:41.213Z,82.40
2018-01-01T11:56:15.058Z,78.00
2018-01-01T11:58:50.558Z,76.50
2018-01-01T12:01:24.421Z,76.40
2018-01-01T12:03:59.142Z,74.40
2018-01-01T12:06:33.012Z,74.40
2018-01-01T12:09:06.903Z,73.10
2018-01-01T12:11:40.799Z,69.00
2018-01-01T12:14:14.546Z,68.90
2018-01-01T12:16:48.387Z,66.70
2018-01-01T12:19:22.839Z,67.40
2018-01-01T12:21:56.954Z,67.30
2018-01-01T12:24:30.859Z,63.90
2018-01-01T12:27:04.950Z,62.20
2018-01-01T12:29:38.763Z,60.00
2018-01-01T12:32:12.699Z,59.90
2018-01-01T12:34:46.735Z,60.20
2018-01-01T12:37:20.816Z,59.70
2018-01-01T12:39:54.768Z,59.60
2018-01-01T12:42:28.711Z,59.80
2018-01-01T12:45:02.508Z,59.20
2018-01-01T12:47:36.343Z,60.30
2018-01-01T12:50:13.645Z,59.50
2018-01-01T12:52:47.308Z,59.60
2018-01-01T12:55:21.197Z,58.50
2018-01-01T12:57:55.146Z,58.40
2018-01-01T13:00:29.557Z,58.70
2018-01-01T13:03:03.511Z,59.00
2018-01-01T13:05:38.128Z,58.50
2018-01-01T13:08:11.970Z,58.10
2018-01-01T13:10:46.468Z,58.90
2018-01-01T13:13:20.481Z,58.80
2018-01-01T13:15:54.305Z,59.20
2018-01-01T13:18:28.264Z,58.90
2018-01-01T13:21:02.961Z,60.00
2018-01-01T13:23:37.076Z,59.80
2018-01-01T13:26:13.325Z,58.20
2018-01-01T13:28:47.099Z,58.40
2018-01-01T13:31:22.281Z,61.50
2018-01-01T13:33:56.999Z,60.50
2018-01-01T13:36:32.060Z,58.10
2018-01-01T13:39:06.460Z,58.00
2018-01-01T13:41:41.415Z,56.80
2018-01-01T13:44:15.420Z,57.80
2018-01-01T13:46:49.771Z,56.90
2018-01-01T13:49:24.500Z,56.80
2018-01-01T13:51:59.242Z,56.50
2018-01-01T13:54:33.661Z,56.40
2018-01-01T13:57:07.656Z,55.90
2018-01-01T13:59:42.131Z,54.80
2018-01-01T14:02:15.950Z,54.80
2018-01-01T14:04:49.791Z,55.40
2018-01-01T14:07:23.595Z,55.50
2018-01-01T14:10:01.075Z,55.30
2018-01-01T14:12:35.775Z,54.30
2018-01-01T14:15:10.166Z,54.60
2018-01-01T14:17:44.073Z,53.30
2018-01-01T14:20:17.769Z,53.30
2018-01-01T14:22:51.719Z,54.00
2018-01-01T14:25:26.154Z,54.40
2018-01-01T14:28:00.122Z,54.30
2018-01-01T14:30:34.470Z,55.00
2018-01-01T14:33:08.195Z,54.60
2018-01-01T14:35:41.969Z,54.50
2018-01-01T14:38:15.681Z,55.00
2018-01-01T14:40:50.222Z,55.40
2018-01-01T14:43:24.428Z,54.80
2018-01-01T14:45:58.374Z,56.00
2018-01-01T14:48:33.241Z,56.00
2018-01-01T14:51:07.130Z,55.30
2018-01-01T14:53:41.992Z,54.80
2018-01-01T14:56:15.868Z,54.70
2018-01-01T14:58:51.153Z,53.60
2018-01-01T15:01:25.865Z,55.30
2018-01-01T15:03:59.716Z,55.30
2018-01-01T15:06:36.228Z,56.00
2018-01-01T15:09:10.171Z,55.20
2018-01-01T15:11:44.967Z,54.30
2018-01-01T15:14:18.854Z,55.70
2018-01-01T15:16:55.847Z,55.40
2018-01-01T15:19:31.346Z,55.80
2018-01-01T15:22:05.169Z,55.70
2018-01-01T15:24:39.261Z,56.50
2018-01-01T15:27:13.207Z,57.20
2018-01-01T15:29:47.798Z,57.90
2018-01-01T15:32:23.288Z,58.90
2018-01-01T15:34:58.003Z,60.50
2018-01-01T15:37:33.654Z,60.80
2018-01-01T15:40:08.196Z,60.70
2018-01-01T15:42:43.065Z,65.50
2018-01-01T15:45:16.835Z,65.40
2018-01-01T15:47:50.658Z,68.30
2018-01-01T15:50:24.382Z,71.10
2018-01-01T15:52:58.492Z,71.70
2018-01-01T15:55:35.884Z,73.50
2018-01-01T15:58:09.608Z,74.40
2018-01-01T16:00:43.570Z,76.60
2018-01-01T16:03:19.211Z,78.60
2018-01-01T16:05:53.901Z,81.30
2018-01-01T16:08:27.760Z,81.20
2018-01-01T16:11:01.533Z,83.60
2018-01-01T16:13:35.500Z,81.90
2018-01-01T16:16:09.374Z,82.30
2018-01-01T16:18:43.149Z,83.70
2018-01-01T16:21:16.968Z,84.50
2018-01-01T16:23:51.783Z,86.10
2018-01-01T16:26:25.868Z,87.20
2018-01-01T16:28:59.954Z,88.80
2018-01-01T16:31:33.756Z,88.90
2018-01-01T16:34:08.347Z,90.20
2018-01-01T16:36:42.573Z,90.20
2018-01-01T16:39:16.452Z,90.40
2018-01-01T16:41:50.197Z,90.00
2018-01-01T16:44:25.317Z,91.10
2018-01-01T16:47:01.153Z,90.70
2018-01-01T16:49:34.984Z,91.30
2018-01-01T16:52:08.955Z,92.00
2018-01-01T16:54:42.906Z,91.70
2018-01-01T16:57:16.762Z,92.00
2018-01-01T16:59:50.805Z,92.10
2018-01-01T17:02:25.481Z,92.60
2018-01-01T17:05:00.465Z,92.70
2018-01-01T17:07:34.520Z,92.60
2018-01-01T17:10:08.369Z,93.10
2018-01-01T17:12:42.411Z,92.70
2018-01-01T17:15:16.409Z,92.50
2018-01-01T17:17:51.047Z,93.20
2018-01-01T17:20:25.221Z,93.20
2018-01-01T17:22:59.081Z,93.40
2018-01-01T17:25:34.064Z,93.70
2018-01-01T17:28:09.732Z,93.70
2018-01-01T17:30:43.648Z,93.10
2018-01-01T17:33:17.507Z,93.30
2018-01-01T17:35:51.317Z,93.50
2018-01-01T17:38:25.074Z,94.30
2018-01-01T17:41:01.902Z,94.50
2018-01-01T17:43:36.662Z,95.20
2018-01-01T17:46:10.502Z,94.80
2018-01-01T17:48:44.424Z,94.80
2018-01-01T17:51:19.721Z,95.30
2018-01-01T17:53:54.364Z,94.60
2018-01-01T17:56:28.367Z,94.70
2018-01-01T17:59:02.396Z,94.30
2018-01-01T18:01:36.375Z,94.30
2018-01-01T18:04:11.413Z,94.30
2018-01-01T18:06:45.454Z,94.50
2018-01-01T18:09:19.361Z,95.70
2018-01-01T18:11:53.233Z,95.30
2018-01-01T18:14:27.114Z,95.50
2018-01-01T18:17:01.168Z,96.10
2018-01-01T18:19:35.174Z,96.10
2018-01-01T18:22:08.885Z,96.50
2018-01-01T18:24:42.687Z,96.40
2018-01-01T18:27:16.589Z,96.30
2018-01-01T18:29:51.073Z,96.60
2018-01-01T18:32:25.727Z,96.50
2018-01-01T18:34:59.788Z,96.50
2018-01-01T18:37:34.532Z,96.80
2018-01-01T18:40:08.579Z,97.20
2018-01-01T18:42:42.488Z,96.90
2018-01-01T18:45:16.430Z,96.90
2018-01-01T18:47:50.438Z,97.10
2018-01-01T18:50:24.431Z,96.80
2018-01-01T18:52:58.556Z,96.80
2018-01-01T18:55:33.311Z,96.60
2018-01-01T18:58:06.990Z,96.50
2018-01-01T19:00:40.885Z,96.60
2018-01-01T19:03:15.026Z,96.90
2018-01-01T19:05:48.993Z,96.80
2018-01-01T19:08:23.083Z,97.70
2018-01-01T19:10:56.980Z,97.50
2018-01-01T19:13:30.805Z,97.70
2018-01-01T19:16:04.974Z,97.30
2018-01-01T19:18:38.942Z,97.10
2018-01-01T19:21:14.058Z,97.00
2018-01-01T19:23:48.656Z,97.30
2018-01-01T19:26:22.644Z,97.30
2018-01-01T19:28:57.181Z,96.10
2018-01-01T19:31:31.929Z,94.30
2018-01-01T19:34:05.802Z,91.60
2018-01-01T19:36:39.866Z,91.90
2018-01-01T19:39:14.658Z,87.80
2018-01-01T19:41:48.783Z,83.90
2018-01-01T19:44:24.308Z,80.00
2018-01-01T19:46:58.126Z,80.00
2018-01-01T19:49:32.183Z,77.60
2018-01-01T19:52:06.811Z,75.00
2018-01-01T19:54:40.569Z,75.00
2018-01-01T19:57:14.565Z,76.20
2018-01-01T19:59:48.455Z,74.80
2018-01-01T20:02:22.336Z,72.60
2018-01-01T20:04:56.292Z,73.70
2018-01-01T20:07:30.270Z,74.00
2018-01-01T20:10:05.522Z,72.80
2018-01-01T20:12:40.516Z,72.70
2018-01-01T20:15:15.327Z,73.60
2018-01-01T20:17:49.243Z,72.90
2018-01-01T20:20:24.473Z,79.40
2018-01-01T20:22:58.329Z,81.30
2018-01-01T20:25:32.537Z,81.60
2018-01-01T20:32:41.168Z,79.10
2018-01-01T20:35:14.850Z,81.90
2018-01-01T20:37:48.778Z,85.00
2018-01-01T20:40:22.720Z,86.80
2018-01-01T20:42:56.562Z,87.10
2018-01-01T20:45:30.512Z,87.50
2018-01-01T20:48:04.420Z,86.00
2018-01-01T20:50:38.353Z,87.90
2018-01-01T20:53:12.791Z,86.90
2018-01-01T20:55:47.633Z,88.80
2018-01-01T20:58:21.640Z,89.40
2018-01-01T21:00:55.572Z,90.40
2018-01-01T21:03:29.436Z,91.50
2018-01-01T21:06:03.377Z,91.30
2018-01-01T21:08:37.328Z,90.20
2018-01-01T21:11:11.969Z,90.80
2018-01-01T21:13:45.872Z,89.90
2018-01-01T21:16:21.991Z,90.30
2018-01-01T21:18:55.765Z,90.20
2018-01-01T21:21:30.357Z,90.50
2018-01-01T21:24:04.111Z,90.10
2018-01-01T21:26:39.767Z,90.90
2018-01-01T21:29:14.010Z,91.00
2018-01-01T21:31:48.359Z,90.80
2018-01-01T21:34:22.946Z,91.40
2018-01-01T21:36:57.558Z,91.30
2018-01-01T21:39:31.551Z,91.10
2018-01-01T21:42:05.618Z,89.70
2018-01-01T21:44:40.400Z,88.20
2018-01-01T21:47:14.426Z,86.20
2018-01-01T21:49:49.037Z,87.80
2018-01-01T21:52:23.218Z,87.60
2018-01-01T21:54:57.130Z,83.60
2018-01-01T21:57:31.088Z,82.80
2018-01-01T22:00:06.942Z,80.50
2018-01-01T22:02:40.898Z,80.20
2018-01-01T22:05:15.692Z,78.50
2018-01-01T22:07:49.563Z,78.30
2018-01-01T22:10:23.392Z,76.50
2018-01-01T22:12:58.056Z,76.60
2018-01-01T22:15:32.926Z,80.20
2018-01-01T22:18:06.840Z,79.70
2018-01-01T22:20:40.577Z,79.50
2018-01-01T22:23:15.852Z,77.90
2018-01-01T22:25:51.534Z,78.40
2018-01-01T22:28:25.612Z,79.60
2018-01-01T22:30:59.743Z,81.10
2018-01-01T22:33:34.216Z,81.80
2018-01-01T22:36:07.977Z,81.70
2018-01-01T22:38:42.380Z,82.20
2018-01-01T22:41:16.637Z,82.10
2018-01-01T22:43:50.597Z,81.00
2018-01-01T22:46:24.562Z,83.80
2018-01-01T22:49:00.151Z,83.40
2018-01-01T22:51:34.176Z,83.30
2018-01-01T22:54:08.125Z,82.20
2018-01-01T22:56:42.994Z,82.90
2018-01-01T22:59:17.581Z,78.80
2018-01-01T23:01:51.517Z,78.70
2018-01-01T23:04:26.928Z,76.50
2018-01-01T23:07:01.473Z,76.40
2018-01-01T23:09:36.191Z,75.60
2018-01-01T23:12:10.008Z,76.50
2018-01-01T23:14:45.870Z,76.10
2018-01-01T23:17:19.726Z,72.00
2018-01-01T23:19:53.727Z,71.20
2018-01-01T23:22:28.443Z,76.10
2018-01-01T23:25:04.085Z,75.90
2018-01-01T23:27:38.068Z,78.40
2018-01-01T23:30:12.163Z,79.20
2018-01-01T23:32:45.978Z,79.10
2018-01-01T23:35:19.839Z,78.70
2018-01-01T23:37:53.902Z,79.30
2018-01-01T23:40:28.656Z,80.20
2018-01-01T23:43:03.054Z,81.40
2018-01-01T23:45:36.899Z,81.70
2018-01-01T23:48:12.232Z,82.90
2018-01-01T23:50:46.262Z,84.90
2018-01-01T23:53:20.710Z,86.50
2018-01-01T23:55:54.562Z,87.40
2018-01-01T23:58:30.640Z,90.20
